Monday, October 23, 2017, 1:21 PM EDT
Back to Local

KFOK, The Gabreski Airport

Location: East Quogue, NY, United States Lat: 40.85
Local Time: 1:21 PM EDT (17:21 GMT) Lon: -72.617
Time Zone: US/Eastern Elev: 65 ft

Show me the last for .
Show Coded

Time T Td Feel RH Dir Speed Gust Alt SLP Vis Weather Sky Remarks
2017-10-23 12:53 71 63 76 75 150° 9 - 30.28 30.27 10 CLR None
2017-10-23 11:53 71 61 76 70 160° 12 - 30.31 30.30 10 FEW040 None
2017-10-23 11:33 70 61 - 73 150° 9 - 30.31 - 10 SCT026 BKN032 None
2017-10-23 11:04 69 61 - 75 150° 7 16 30.32 - 10 BKN029 BKN034 None
2017-10-23 10:53 69 61 - 75 140° 9 - 30.32 30.32 10 SCT030 BKN037 None
2017-10-23 09:53 67 62 - 84 160° 8 - 30.34 30.34 10 BKN034 None
2017-10-23 08:53 63 61 - 93 150° 5 - 30.35 30.35 10 BKN035 None
2017-10-23 08:00 53 52 - 96 - Calm - 30.35 - 10 FEW005 BKN034 None
2017-10-23 07:53 50 49 - 96 - Calm - 30.35 30.34 10 CLR 6-hr Min Temp (8am): 42.1°F
6-hr Max Temp (8am): 50.0°F
2017-10-23 07:17 46 44 - 92 - Calm - 30.35 - 3 BR CLR None
2017-10-23 07:15 46 44 - 92 - Calm - 30.35 - 1 BR CLR None
2017-10-23 07:04 46 44 - 92 - Calm - 30.35 - 0 FG CLR None
2017-10-23 06:53 46 44 - 92 - Calm - 30.35 30.35 0 BR VV003 None
2017-10-23 06:39 45 43 - 92 - Calm - 30.35 - 1 BR BKN004 Variable visibility
2017-10-23 06:13 45 43 - 92 - Calm - 30.35 - 8 OVC003 None
2017-10-23 06:06 45 43 44 92 40° 3 - 30.35 - 2 BR OVC003 None
2017-10-23 05:53 45 42 - 89 - Calm - 30.36 30.35 0 BR VV003 None
2017-10-23 05:50 45 43 - 93 - Calm - 30.35 - 1 BR BKN004 None
2017-10-23 05:40 44 42 - 92 - Calm - 30.36 - 4 BR BKN004 None
2017-10-23 05:34 45 42 - 89 - Calm - 30.35 - 1 BR BKN004 None
2017-10-23 05:26 45 43 - 92 - Calm - 30.35 - 2 BR BKN004 Variable visibility
2017-10-23 04:58 45 42 44 89 40° 3 - 30.35 - 3 BR BKN005 None
2017-10-23 04:53 44 41 - 88 - Calm - 30.35 30.35 1 BR OVC005 None
2017-10-23 04:39 44 41 - 88 - Calm - 30.35 - 1 BR BKN006 None
2017-10-23 04:24 44 41 43 88 40° 3 - 30.35 - 5 BR BKN005 None
2017-10-23 04:19 44 41 - 88 - Calm - 30.36 - 2 BR SCT005 None
2017-10-23 04:16 44 41 - 88 - Calm - 30.36 - 1 BR VV005 None
2017-10-23 04:04 44 41 - 88 - Calm - 30.36 - 0 FG VV006 None
2017-10-23 03:57 44 41 - 88 - Calm - 30.36 - 1 BR BKN004 Variable visibility
2017-10-23 03:53 44 41 - 88 - Calm - 30.36 30.36 5 BR SCT004 None
2017-10-23 03:14 43 41 - 92 - Calm - 30.37 - 8 SCT002 None
2017-10-23 03:02 43 41 - 92 - Calm - 30.38 - 10 BKN002 None
2017-10-23 02:53 43 40 41 88 40° 3 - 30.38 30.37 5 BR OVC001 None
2017-10-23 02:48 43 39 41 86 40° 3 - 30.38 - 3 BR OVC001 None
2017-10-23 02:42 42 41 - 95 - Calm - 30.38 - 1 BR VV001 Variable visibility
2017-10-23 02:33 43 41 41 92 40° 3 - 30.38 - 0 FG VV001 None
2017-10-23 02:22 42 40 - 91 - Calm - 30.38 - 0 BR VV001 None
2017-10-23 02:12 43 41 - 92 - Calm - 30.38 - 2 BR OVC001 None
2017-10-23 02:03 44 41 - 88 - Calm - 30.38 - 1 BR OVC002 None
2017-10-23 01:53 44 41 - 88 - Calm - 30.39 30.38 5 BR OVC002 6-hr Min Temp (2am): 42.1°F
6-hr Max Temp (2am): 50.0°F
2017-10-23 01:41 43 41 - 92 - Calm - 30.39 - 2 BR BKN002 Variable visibility
2017-10-23 01:31 44 41 - 88 - Calm - 30.40 - 10 SCT002 None
2017-10-23 00:53 44 41 - 88 - Calm - 30.41 30.40 10 CLR 24-hr Min Temp (1am): 37.9°F
24-hr Max Temp (1am): 73.0°F
2017-10-22 23:53 44 42 - 92 - Calm - 30.41 30.41 10 FEW002 None
2017-10-22 23:46 44 42 - 92 - Calm - 30.41 - 4 BR SCT002 None
2017-10-22 23:42 44 42 - 92 - Calm - 30.41 - 1 BR SCT002 None
2017-10-22 23:36 44 42 - 92 - Calm - 30.41 - 0 FG VV002 None
2017-10-22 23:26 44 42 - 92 - Calm - 30.41 - 1 BR BKN002 None
2017-10-22 22:56 44 41 - 88 - Calm - 30.41 - 10 OVC002 None
2017-10-22 22:48 45 42 - 89 - Calm - 30.41 30.41 2 BR BKN002 None
2017-10-22 22:47 45 43 - 93 - Calm - 30.41 - 2 BR BKN002 None
2017-10-22 22:31 44 42 - 92 - Calm - 30.41 - 0 BR VV002 None
2017-10-22 22:28 44 41 - 88 - Calm - 30.41 - 1 BR SCT002 None
2017-10-22 22:07 46 42 - 85 - Calm - 30.41 - 10 SCT002 None
2017-10-22 21:53 46 43 - 88 - Calm - 30.41 30.41 10 CLR None
2017-10-22 21:29 47 43 - 86 - Calm - 30.41 - 10 FEW002 None
2017-10-22 20:53 49 45 - 86 - Calm - 30.41 30.41 10 CLR None
2017-10-22 20:12 50 46 - 86 - Calm - 30.40 - 9 CLR None
2017-10-22 20:05 50 47 - 89 - Calm - 30.40 - 2 BR CLR None
2017-10-22 19:53 50 47 - 89 - Calm - 30.40 30.40 0 BR CLR 6-hr Min Temp (8pm): 48.9°F
6-hr Max Temp (8pm): 72.0°F
2017-10-22 19:32 50 47 - 89 - Calm - 30.40 - 1 BR CLR None
2017-10-22 18:53 53 49 - 85 - Calm - 30.40 30.40 10 CLR None
2017-10-22 17:53 62 53 - 72 - Calm - 30.39 30.39 10 CLR None
2017-10-22 16:53 67 52 - 58 210° 7 - 30.39 30.39 10 CLR None
2017-10-22 15:53 68 52 - 56 220° 6 - 30.40 30.40 10 CLR None
2017-10-22 14:53 72 49 76 44 Variable 7 - 30.40 30.40 10 CLR None
2017-10-22 13:53 71 54 76 54 220° 8 - 30.41 30.40 10 CLR 6-hr Min Temp (2pm): 42.1°F
6-hr Max Temp (2pm): 73.0°F

Support USWX by starting your Amazon purchase here.